Terminal Aerodrome Forecast
Issued by NWS Jackson, KY

Home | Current Version | Previous Version | Text Only | Print | Product List | Glossary On
Versions: 1 2 3 4 5 6 7 8 9 10 11 12 13 14 15 16
000
FTUS43 KJKL 010838 AAB
TAFJKL
TAF AMD
KJKL 010838Z 0109/0206 00000KT P6SM SKC
     FM011000 00000KT 4SM BR SKC
      TEMPO 0110/0112 1/2SM FG VV002
     FM011300 00000KT 3SM BR BKN030
     FM011400 VRB06KT P6SM FEW250=

USA.gov is the U.S. government's official web portal to all federal, state and local government web resources and services.